Time;durP1;ratioP1;P1;durP2;ratioP2;P2;SDS_P1;SDS_P2;PMS_P1;PMS_P2;Temp;Humidity;BMP_temperature;BMP_pressure;BME280_temperature;BME280_humidity;BME280_pressure;Samples;Min_cycle;Max_cycle;Signal;HPM_P1;HPM_P2
2022/09/14 00:01:38;;;;;;;7.75;1.90;;;;;;;20.75;51.39;100785.81;4869736;28;121673;-71
2022/09/14 00:04:15;;;;;;;7.80;1.98;;;;;;;20.75;51.35;100780.41;4869239;28;119971;-70
2022/09/14 00:06:43;;;;;;;8.27;2.60;;;;;;;20.76;51.30;100787.53;4868582;28;124765;-70
2022/09/14 00:09:14;;;;;;;7.25;2.20;;;;;;;20.77;51.33;100789.22;4853825;28;122830;-70
2022/09/14 00:11:45;;;;;;;5.93;2.05;;;;;;;20.78;51.34;100785.53;4867771;28;118608;-70
2022/09/14 00:14:15;;;;;;;4.47;1.75;;;;;;;20.78;51.48;100777.47;4870300;28;119893;-68
2022/09/14 00:16:43;;;;;;;7.35;1.90;;;;;;;20.77;51.42;100773.06;4878422;28;123825;-70
2022/09/14 00:19:18;;;;;;;6.15;1.83;;;;;;;20.75;51.27;100780.41;4870254;28;123816;-72
2022/09/14 00:21:52;;;;;;;6.38;1.90;;;;;;;20.73;51.59;100766.25;4868750;28;118631;-70
2022/09/14 00:24:20;;;;;;;8.02;1.88;;;;;;;20.71;51.51;100768.22;4869275;28;119312;-69
2022/09/14 00:26:47;;;;;;;7.93;1.98;;;;;;;20.71;51.35;100760.16;4868478;28;123850;-70
2022/09/14 00:29:16;;;;;;;6.65;1.90;;;;;;;20.70;51.52;100766.53;4853117;28;123528;-70
2022/09/14 00:31:44;;;;;;;6.50;2.05;;;;;;;20.69;51.35;100755.91;4876784;28;118987;-70
2022/09/14 00:34:13;;;;;;;8.75;2.08;;;;;;;20.68;51.63;100747.00;4880461;28;120116;-70
2022/09/14 00:36:47;;;;;;;7.72;2.00;;;;;;;20.68;51.46;100757.75;4883080;28;124594;-70
2022/09/14 00:39:17;;;;;;;7.22;1.90;;;;;;;20.66;51.63;100738.19;4868150;28;122962;-70
2022/09/14 00:41:46;;;;;;;6.93;2.20;;;;;;;20.63;51.66;100735.78;4865584;28;119444;-70
2022/09/14 00:44:13;;;;;;;6.65;1.83;;;;;;;20.61;51.81;100735.06;4868944;28;119089;-70
2022/09/14 00:46:41;;;;;;;5.10;1.90;;;;;;;20.58;51.79;100729.91;4866418;28;123487;-70
2022/09/14 00:49:43;;;;;;;7.00;1.77;;;;;;;20.57;51.94;100728.22;4867837;28;124874;-70
2022/09/14 00:52:13;;;;;;;6.55;1.75;;;;;;;20.55;52.00;100722.09;4860183;28;120950;-70
2022/09/14 00:54:52;;;;;;;8.77;2.15;;;;;;;20.54;51.94;100717.72;4869922;28;119523;-72
2022/09/14 00:57:33;;;;;;;7.30;1.95;;;;;;;20.53;52.15;100721.38;4865349;28;123965;-70
2022/09/14 01:00:00;;;;;;;6.45;1.67;;;;;;;20.53;52.35;100718.69;4870790;28;123805;-70
2022/09/14 01:02:28;;;;;;;6.65;1.95;;;;;;;20.52;52.28;100719.72;4870509;28;119650;-70
2022/09/14 01:04:56;;;;;;;6.13;1.70;;;;;;;20.51;52.35;100712.59;4879350;28;118418;-70
2022/09/14 01:07:29;;;;;;;9.57;1.90;;;;;;;20.50;52.39;100716.31;4866014;28;124490;-69
2022/09/14 01:10:14;;;;;;;5.72;2.10;;;;;;;20.50;52.42;100710.94;4874679;28;123986;-69
2022/09/14 01:12:41;;;;;;;;;;;;;;;20.47;52.00;100705.81;4872204;28;118468;-69
2022/09/14 01:15:16;;;;;;;6.25;2.05;;;;;;;20.46;52.42;100704.97;4874738;28;117397;-70
2022/09/14 01:17:52;;;;;;;6.18;1.95;;;;;;;20.43;52.36;100706.06;4874299;28;124552;-70
2022/09/14 01:20:26;;;;;;;7.05;2.20;;;;;;;20.39;52.38;100699.25;4882285;28;123365;-69
2022/09/14 01:23:31;;;;;;;7.70;2.13;;;;;;;20.37;52.53;100701.25;4887698;28;118514;-70
2022/09/14 01:26:10;;;;;;;6.28;1.75;;;;;;;20.33;52.55;100702.50;4871846;28;118943;-70
2022/09/14 01:29:13;;;;;;;5.50;1.80;;;;;;;20.27;52.69;100699.50;4870641;28;124272;-70
2022/09/14 01:31:54;;;;;;;7.43;1.80;;;;;;;20.23;52.89;100696.25;4868716;28;124117;-70
2022/09/14 01:34:27;;;;;;;7.10;1.90;;;;;;;20.20;53.00;100693.81;4883671;28;119425;-70
2022/09/14 01:37:00;;;;;;;8.00;1.73;;;;;;;20.17;53.16;100694.06;4872619;28;118785;-70
2022/09/14 01:39:31;;;;;;;9.27;2.00;;;;;;;20.15;53.39;100690.69;4886940;28;123137;-70
2022/09/14 01:42:00;;;;;;;6.03;1.95;;;;;;;20.13;53.29;100692.66;4874753;28;125027;-70
2022/09/14 01:44:33;;;;;;;9.30;1.88;;;;;;;20.12;53.29;100690.97;4871313;28;120061;-70
2022/09/14 01:47:15;;;;;;;6.35;1.90;;;;;;;20.08;53.42;100684.13;4871114;28;119723;-70
2022/09/14 01:49:47;;;;;;;6.38;2.08;;;;;;;20.06;53.53;100684.28;4868906;28;123972;-70
2022/09/14 01:52:25;;;;;;;9.48;2.20;;;;;;;20.03;53.53;100677.31;4871632;28;123821;-70
2022/09/14 01:55:00;;;;;;;5.97;2.08;;;;;;;20.00;53.52;100676.75;4868940;28;119260;-70
2022/09/14 01:57:32;;;;;;;6.50;2.15;;;;;;;19.95;53.92;100668.25;4871254;28;119104;-70
2022/09/14 02:00:15;;;;;;;5.97;2.00;;;;;;;19.89;53.97;100661.56;4872414;28;123682;-70
2022/09/14 02:02:54;;;;;;;10.10;2.20;;;;;;;19.85;54.10;100670.88;4870238;28;124348;-70
2022/09/14 02:05:35;;;;;;;8.13;2.17;;;;;;;19.85;54.17;100678.94;4869521;28;119109;-70
2022/09/14 02:08:03;;;;;;;7.43;1.67;;;;;;;19.84;54.12;100677.25;4868883;28;118783;-70
2022/09/14 02:10:30;;;;;;;7.43;2.05;;;;;;;19.82;54.13;100668.47;4873076;28;124204;-70
2022/09/14 02:12:57;;;;;;;6.93;2.05;;;;;;;19.83;54.27;100670.16;4872572;28;123983;-71
2022/09/14 02:15:25;;;;;;;5.70;1.90;;;;;;;19.83;54.29;100664.78;4871997;28;121739;-70
2022/09/14 02:17:53;;;;;;;5.82;2.13;;;;;;;19.83;54.53;100670.16;4875751;28;117999;-70
2022/09/14 02:20:40;;;;;;;4.80;2.03;;;;;;;19.80;54.67;100670.44;4872482;28;124063;-69
2022/09/14 02:23:07;;;;;;;9.57;1.85;;;;;;;19.78;54.76;100672.41;4869046;28;124765;-70
2022/09/14 02:25:35;;;;;;;6.40;2.38;;;;;;;19.77;54.96;100668.00;4873183;28;119314;-70
2022/09/14 02:28:03;;;;;;;7.03;1.88;;;;;;;19.75;54.88;100661.91;4882636;28;117409;-70
2022/09/14 02:30:36;;;;;;;8.23;1.98;;;;;;;19.74;54.71;100665.56;4870223;28;123813;-70
2022/09/14 02:33:24;;;;;;;6.10;1.88;;;;;;;19.72;54.73;100670.19;4868479;28;124755;-71
2022/09/14 02:36:04;;;;;;;8.38;1.85;;;;;;;19.69;55.15;100675.84;4870732;28;119781;-70
2022/09/14 02:38:49;;;;;;;5.57;1.85;;;;;;;19.66;55.00;100674.25;4876916;28;119950;-70
2022/09/14 02:41:23;;;;;;;6.15;2.10;;;;;;;19.65;55.03;100681.47;4868539;28;124143;-70
2022/09/14 02:44:03;;;;;;;5.38;1.92;;;;;;;19.63;55.25;100670.00;4867933;28;123687;-71
2022/09/14 02:46:51;;;;;;;6.43;1.90;;;;;;;19.63;55.19;100675.38;4869270;28;119916;-71
2022/09/14 02:49:34;;;;;;;6.18;2.05;;;;;;;19.63;55.42;100666.47;4871578;28;118941;-70
2022/09/14 02:52:12;;;;;;;5.90;1.80;;;;;;;19.62;55.50;100673.66;4867719;28;125065;-71
2022/09/14 02:54:51;;;;;;;5.63;2.30;;;;;;;19.62;55.52;100679.03;4882601;28;124420;-70
2022/09/14 02:57:18;;;;;;;7.07;2.10;;;;;;;19.64;55.65;100677.06;4869284;28;119263;-71
2022/09/14 02:59:45;;;;;;;7.13;2.28;;;;;;;19.67;55.97;100677.81;4886429;28;117982;-71
2022/09/14 03:02:12;;;;;;;7.28;2.00;;;;;;;19.67;56.05;100670.59;4871333;28;124079;-70
2022/09/14 03:04:39;;;;;;;3.78;1.90;;;;;;;19.65;55.98;100673.41;4870449;28;123838;-70
2022/09/14 03:07:07;;;;;;;6.70;1.80;;;;;;;19.62;56.09;100668.28;4867704;28;119354;-71
2022/09/14 03:09:34;;;;;;;9.95;2.00;;;;;;;19.59;56.22;100673.97;4870674;28;118873;-70
2022/09/14 03:12:01;;;;;;;5.63;2.08;;;;;;;19.56;56.31;100674.22;4889997;28;123177;-70
2022/09/14 03:14:28;;;;;;;4.47;1.90;;;;;;;19.52;56.58;100686.19;4867958;28;123402;-70
2022/09/14 03:16:55;;;;;;;6.35;2.03;;;;;;;19.50;56.37;100674.75;4869161;28;119345;-70
2022/09/14 03:19:22;;;;;;;6.30;2.05;;;;;;;19.49;56.69;100678.41;4871200;28;118898;-70
2022/09/14 03:21:49;;;;;;;7.75;2.10;;;;;;;19.46;56.73;100678.69;4870809;28;123812;-71
2022/09/14 03:24:16;;;;;;;9.43;2.17;;;;;;;19.43;56.66;100673.56;4871635;28;124476;-71
2022/09/14 03:26:44;;;;;;;5.25;2.20;;;;;;;19.39;56.75;100672.13;4869672;28;120153;-71
2022/09/14 03:29:11;;;;;;;6.07;1.75;;;;;;;19.35;56.80;100670.69;4870518;28;119983;-70
2022/09/14 03:31:38;;;;;;;7.05;1.95;;;;;;;19.29;56.77;100661.31;4872786;28;124012;-70
2022/09/14 03:34:05;;;;;;;4.55;1.70;;;;;;;19.22;56.60;100660.97;4870259;28;123930;-70
2022/09/14 03:36:32;;;;;;;6.15;1.88;;;;;;;19.18;56.99;100654.16;4869443;28;118425;-70
2022/09/14 03:39:00;;;;;;;8.27;1.92;;;;;;;19.14;57.26;100647.34;4870403;28;119735;-70
2022/09/14 03:41:27;;;;;;;5.75;1.90;;;;;;;19.09;57.13;100654.94;4871094;28;123797;-70
2022/09/14 03:43:55;;;;;;;7.45;1.90;;;;;;;19.06;57.25;100647.13;4870088;28;123729;-70
2022/09/14 03:46:23;;;;;;;8.13;1.90;;;;;;;19.01;57.45;100641.31;4867705;28;120326;-70
2022/09/14 03:48:51;;;;;;;4.03;1.70;;;;;;;18.96;57.46;100646.19;4869523;28;118050;-70
2022/09/14 03:51:18;;;;;;;5.45;1.98;;;;;;;18.93;57.76;100643.75;4869190;28;124640;-70
2022/09/14 03:53:45;;;;;;;8.38;2.08;;;;;;;18.90;57.73;100638.66;4868580;28;124826;-70
2022/09/14 03:56:18;;;;;;;6.32;1.80;;;;;;;18.88;57.76;100624.53;4871139;28;119309;-70
2022/09/14 03:58:47;;;;;;;7.22;2.10;;;;;;;18.84;57.90;100624.78;4869730;28;119276;-72
2022/09/14 04:01:17;;;;;;;8.65;1.83;;;;;;;18.75;58.11;100625.50;4871063;28;123434;-70
2022/09/14 04:03:45;;;;;;;5.38;1.85;;;;;;;18.70;58.14;100626.88;4869580;28;123663;-70
2022/09/14 04:06:14;;;;;;;7.47;1.90;;;;;;;18.64;58.13;100625.53;4869424;28;120199;-70
2022/09/14 04:08:43;;;;;;;10.05;2.08;;;;;;;18.61;58.30;100623.09;4885732;28;118947;-70
2022/09/14 04:11:14;;;;;;;5.70;2.25;;;;;;;18.58;58.44;100624.22;4881474;28;123514;-72
2022/09/14 04:13:41;;;;;;;4.85;2.20;;;;;;;18.57;58.50;100613.63;4868454;28;123716;-69
2022/09/14 04:16:08;;;;;;;5.50;2.38;;;;;;;18.57;58.60;100605.56;4880368;28;119187;-70
2022/09/14 04:18:35;;;;;;;7.10;2.97;;;;;;;18.57;58.59;100605.56;4868404;28;119841;-70
2022/09/14 04:21:06;;;;;;;5.85;2.45;;;;;;;18.57;58.77;100610.94;4869510;28;124091;-70
2022/09/14 04:23:35;;;;;;;6.05;2.30;;;;;;;18.58;58.74;100607.28;4869424;28;123753;-70
2022/09/14 04:26:25;;;;;;;7.35;2.10;;;;;;;18.57;58.68;100589.47;4882706;28;119087;-70
2022/09/14 04:28:53;;;;;;;6.43;2.17;;;;;;;18.57;58.77;100590.34;4869757;28;120351;-70
2022/09/14 04:31:20;;;;;;;7.28;1.92;;;;;;;18.57;58.64;100584.09;4881171;28;123640;-70
2022/09/14 04:33:49;;;;;;;10.13;1.83;;;;;;;18.57;58.98;100578.75;4872102;28;124396;-70
2022/09/14 04:36:19;;;;;;;6.53;2.00;;;;;;;18.57;58.87;100584.09;4883687;28;119200;-70
2022/09/14 04:38:47;;;;;;;7.13;1.85;;;;;;;18.57;58.70;100576.94;4866993;28;120320;-70
2022/09/14 04:41:16;;;;;;;6.80;1.80;;;;;;;18.55;58.80;100580.69;4882796;28;124067;-70
2022/09/14 04:43:45;;;;;;;7.00;1.90;;;;;;;18.53;58.76;100577.31;4869022;28;124022;-70
2022/09/14 04:46:15;;;;;;;5.07;1.60;;;;;;;18.48;59.05;100581.22;4869798;28;119700;-70
2022/09/14 04:48:43;;;;;;;6.07;1.90;;;;;;;18.47;58.88;100584.03;4872418;28;119696;-70
2022/09/14 04:51:15;;;;;;;5.05;1.73;;;;;;;18.44;59.14;100579.78;4893007;28;122215;-70
2022/09/14 04:53:44;;;;;;;9.32;1.67;;;;;;;18.45;59.17;100581.47;4881066;28;124010;-70
2022/09/14 04:56:13;;;;;;;4.32;1.60;;;;;;;18.47;59.11;100590.22;4870874;28;119484;-70
2022/09/14 04:58:47;;;;;;;7.07;1.90;;;;;;;18.48;59.17;100581.22;4864264;28;116516;-70
2022/09/14 05:01:20;;;;;;;6.93;1.63;;;;;;;18.48;59.28;100581.22;4879869;28;124400;-71
2022/09/14 05:03:48;;;;;;;7.55;2.00;;;;;;;18.49;59.24;100566.81;4882135;28;124061;-70
2022/09/14 05:06:18;;;;;;;7.75;1.88;;;;;;;18.48;59.21;100578.53;4868365;28;120334;-71
2022/09/14 05:08:45;;;;;;;8.38;1.90;;;;;;;18.47;59.26;100574.13;4884317;28;119223;-70
2022/09/14 05:11:15;;;;;;;4.35;1.52;;;;;;;18.49;59.27;100565.97;4869701;28;124463;-71
2022/09/14 05:13:43;;;;;;;5.05;1.90;;;;;;;18.52;59.26;100562.19;4868412;28;125120;-70
2022/09/14 05:16:21;;;;;;;3.65;1.80;;;;;;;18.54;59.38;100568.28;4868788;28;119675;-71
2022/09/14 05:18:52;;;;;;;5.55;1.90;;;;;;;18.55;59.34;100565.44;4866346;28;118736;-71
2022/09/14 05:21:20;;;;;;;7.78;2.00;;;;;;;18.56;59.34;100571.69;4868422;28;124545;-71
2022/09/14 05:23:53;;;;;;;5.72;2.20;;;;;;;18.57;59.49;100573.38;4869414;28;125335;-71
2022/09/14 05:26:21;;;;;;;7.68;1.77;;;;;;;18.59;59.49;100572.28;4855000;28;118926;-71
2022/09/14 05:28:54;;;;;;;6.32;1.50;;;;;;;18.63;59.54;100572.88;4869876;28;118648;-71
2022/09/14 05:31:23;;;;;;;5.30;1.60;;;;;;;18.66;59.18;100575.28;4864502;28;123297;-72
2022/09/14 05:33:51;;;;;;;3.33;1.63;;;;;;;18.68;59.40;100581.38;4874930;28;123994;-72
2022/09/14 05:36:19;;;;;;;4.90;1.77;;;;;;;18.68;59.32;100586.75;4869573;28;119124;-72
2022/09/14 05:38:46;;;;;;;6.55;1.70;;;;;;;18.71;59.31;100574.94;4866869;28;119374;-72
2022/09/14 05:41:14;;;;;;;6.35;1.80;;;;;;;18.73;59.46;100575.66;4868720;28;124042;-72
2022/09/14 05:43:42;;;;;;;5.30;1.90;;;;;;;18.71;59.22;100573.09;4867541;28;125082;-72
2022/09/14 05:46:11;;;;;;;7.50;1.90;;;;;;;18.70;59.24;100573.22;4878168;28;119242;-72
2022/09/14 05:48:39;;;;;;;6.32;2.28;;;;;;;18.69;59.44;100583.09;4871482;28;118858;-72
2022/09/14 05:51:10;;;;;;;8.75;2.30;;;;;;;18.67;59.52;100580.53;4872361;28;123917;-72
2022/09/14 05:53:37;;;;;;;5.13;1.85;;;;;;;18.68;59.56;100576.91;4868870;28;123691;-72
2022/09/14 05:56:10;;;;;;;4.93;1.95;;;;;;;18.71;59.70;100586.50;4855016;28;119470;-72
2022/09/14 05:58:38;;;;;;;7.05;2.00;;;;;;;18.73;59.63;100594.44;4870700;28;119681;-72
2022/09/14 06:01:14;;;;;;;5.60;2.00;;;;;;;18.74;59.69;100590.75;4872332;28;124267;-72
2022/09/14 06:03:41;;;;;;;6.20;2.05;;;;;;;18.75;59.52;100598.69;4864003;28;124822;-71
2022/09/14 06:06:10;;;;;;;5.22;2.20;;;;;;;18.77;59.51;100601.25;4879354;28;120514;-72
2022/09/14 06:08:38;;;;;;;6.28;2.33;;;;;;;18.76;59.33;100595.03;4872485;28;118419;-72
2022/09/14 06:11:09;;;;;;;6.25;2.63;;;;;;;18.78;59.57;100595.75;4868618;28;124051;-72
2022/09/14 06:13:36;;;;;;;6.78;3.20;;;;;;;18.79;59.45;100594.75;4882572;28;121893;-71
2022/09/14 06:16:05;;;;;;;7.07;2.58;;;;;;;18.79;59.61;100594.75;4871708;28;118758;-72
2022/09/14 06:18:34;;;;;;;6.43;2.33;;;;;;;18.80;59.62;100591.13;4880916;28;118954;-72
2022/09/14 06:21:02;;;;;;;5.63;2.22;;;;;;;18.82;59.55;100599.91;4878839;28;124411;-72
2022/09/14 06:23:31;;;;;;;6.47;2.47;;;;;;;18.83;59.60;100598.06;4892709;28;123555;-72
2022/09/14 06:26:00;;;;;;;3.85;2.38;;;;;;;18.84;59.68;100592.56;4894718;28;119497;-72
2022/09/14 06:28:28;;;;;;;4.10;1.92;;;;;;;18.86;59.66;100595.97;4871440;28;119678;-72
2022/09/14 06:30:55;;;;;;;5.30;2.10;;;;;;;18.88;59.82;100586.97;4871076;28;124154;-72
2022/09/14 06:33:23;;;;;;;4.18;2.00;;;;;;;18.91;59.62;100584.00;4875213;28;123704;-72
2022/09/14 06:36:01;;;;;;;3.50;2.20;;;;;;;18.91;59.71;100581.31;4869211;28;119338;-72
2022/09/14 06:38:29;;;;;;;6.75;4.13;;;;;;;18.92;59.62;100577.66;4867929;28;119466;-72
2022/09/14 06:40:58;;;;;;;11.95;4.88;;;;;;;18.93;59.75;100584.72;4877749;28;124365;-73
2022/09/14 06:43:27;;;;;;;9.10;4.80;;;;;;;18.90;59.67;100575.09;4870003;28;123613;-72
2022/09/14 06:45:59;;;;;;;10.63;4.93;;;;;;;18.86;59.58;100579.88;4872788;28;120160;-72
2022/09/14 06:48:29;;;;;;;6.05;3.80;;;;;;;18.83;59.65;100569.38;4868415;28;119887;-72
2022/09/14 06:50:56;;;;;;;4.53;3.08;;;;;;;18.81;59.63;100571.34;4867954;28;123020;-72
2022/09/14 06:53:23;;;;;;;7.80;3.30;;;;;;;18.80;59.74;100575.03;4871319;28;125236;-72
2022/09/14 06:55:51;;;;;;;6.45;2.90;;;;;;;18.80;59.91;100579.53;4869525;28;119458;-72
2022/09/14 06:58:18;;;;;;;8.63;2.58;;;;;;;18.80;60.00;100575.03;4871706;28;119543;-72
2022/09/14 07:00:45;;;;;;;3.88;2.30;;;;;;;18.82;60.04;100581.13;4871303;28;123863;-72
2022/09/14 07:03:12;;;;;;;5.38;2.20;;;;;;;18.84;60.07;100575.63;4870587;28;123449;-72
2022/09/14 07:05:39;;;;;;;6.50;2.25;;;;;;;18.85;60.19;100578.19;4870972;28;118987;-72
2022/09/14 07:08:06;;;;;;;12.48;2.83;;;;;;;18.88;59.76;100586.97;4871620;28;119349;-72
2022/09/14 07:10:38;;;;;;;6.28;3.13;;;;;;;18.88;60.05;100581.59;4867387;28;124567;-72
2022/09/14 07:13:05;;;;;;;6.45;3.10;;;;;;;18.89;60.03;100577.91;4870703;28;123903;-72
2022/09/14 07:15:32;;;;;;;7.32;2.83;;;;;;;18.90;59.94;100574.25;4873584;28;119729;-72
2022/09/14 07:17:59;;;;;;;7.18;3.10;;;;;;;18.91;60.15;100573.25;4894057;28;118052;-72
2022/09/14 07:20:26;;;;;;;5.60;2.60;;;;;;;18.95;60.19;100590.81;4870752;28;124456;-72
2022/09/14 07:22:54;;;;;;;9.32;2.55;;;;;;;18.96;60.29;100585.31;4874080;28;124066;-73
2022/09/14 07:25:21;;;;;;;6.32;2.38;;;;;;;18.99;60.30;100589.59;4882797;28;119771;-72
2022/09/14 07:27:48;;;;;;;6.97;2.40;;;;;;;19.02;60.58;100589.31;4883766;28;119087;-72
2022/09/14 07:30:15;;;;;;;8.60;2.60;;;;;;;19.04;60.37;100581.97;4890130;28;124306;-73
2022/09/14 07:32:42;;;;;;;5.72;2.25;;;;;;;19.07;60.18;100576.34;4878928;28;123952;-73
2022/09/14 07:35:09;;;;;;;4.82;2.28;;;;;;;19.07;60.38;100573.69;4872864;28;120167;-72
2022/09/14 07:37:36;;;;;;;7.88;2.33;;;;;;;19.09;60.32;100571.72;4881487;28;119794;-72
2022/09/14 07:40:03;;;;;;;5.35;2.15;;;;;;;19.10;60.28;100573.44;4882532;28;123778;-72
2022/09/14 07:42:30;;;;;;;6.82;2.70;;;;;;;19.12;60.24;100567.91;4878155;28;124079;-72
2022/09/14 07:44:57;;;;;;;9.20;2.50;;;;;;;19.11;60.04;100567.06;4863964;28;120320;-72
2022/09/14 07:47:24;;;;;;;7.63;2.67;;;;;;;19.10;60.06;100570.75;4886377;28;118851;-72
2022/09/14 07:49:51;;;;;;;10.63;2.50;;;;;;;19.10;60.19;100565.38;4889920;28;124804;-72
2022/09/14 07:52:18;;;;;;;7.78;2.58;;;;;;;19.08;60.08;100561.97;4874355;28;124149;-72
2022/09/14 07:54:45;;;;;;;8.20;2.30;;;;;;;19.04;60.11;100558.69;4855220;28;118438;-72
2022/09/14 07:57:13;;;;;;;4.82;2.22;;;;;;;19.01;60.29;100561.63;4870122;28;119310;-73
2022/09/14 07:59:39;;;;;;;5.63;2.20;;;;;;;18.98;60.34;100550.31;4869881;28;123622;-73
2022/09/14 08:02:08;;;;;;;5.25;2.40;;;;;;;18.95;60.50;100553.22;4870847;28;123907;-72
2022/09/14 08:04:38;;;;;;;6.72;2.30;;;;;;;18.94;60.44;100554.22;4869439;28;119396;-73
2022/09/14 08:07:05;;;;;;;8.43;2.45;;;;;;;18.94;60.41;100555.06;4870375;28;119217;-72
2022/09/14 08:09:32;;;;;;;6.30;2.35;;;;;;;18.96;60.31;100552.25;4870552;28;124718;-72
2022/09/14 08:11:59;;;;;;;8.23;2.90;;;;;;;18.95;60.44;100550.56;4870130;28;123883;-72
2022/09/14 08:14:26;;;;;;;7.13;2.90;;;;;;;18.95;60.52;100555.91;4870882;28;119090;-72
2022/09/14 08:16:53;;;;;;;6.88;2.50;;;;;;;18.92;60.54;100550.81;4872349;28;118785;-72
2022/09/14 08:19:20;;;;;;;9.13;3.10;;;;;;;18.91;60.74;100554.47;4904084;28;124606;-72
2022/09/14 08:21:47;;;;;;;5.10;2.80;;;;;;;18.91;60.47;100557.16;4888947;28;123656;-72
2022/09/14 08:24:17;;;;;;;8.30;2.95;;;;;;;18.92;60.73;100545.47;4889398;28;119975;-72
2022/09/14 08:26:45;;;;;;;7.25;3.35;;;;;;;18.91;60.64;100543.75;4868054;28;119743;-72
2022/09/14 08:29:14;;;;;;;10.52;3.70;;;;;;;18.92;60.77;100545.47;4861198;28;123957;-72
2022/09/14 08:31:43;;;;;;;9.43;3.35;;;;;;;18.92;60.70;100545.47;4884235;28;123963;-72
2022/09/14 08:34:10;;;;;;;9.18;3.33;;;;;;;18.95;61.08;100539.81;4895691;28;119908;-72
2022/09/14 08:36:38;;;;;;;5.88;3.50;;;;;;;18.98;61.09;100544.94;4870511;28;118694;-72
2022/09/14 08:39:08;;;;;;;7.53;3.45;;;;;;;19.00;61.00;100548.34;4893626;28;124068;-72
2022/09/14 08:41:44;;;;;;;6.50;3.33;;;;;;;19.02;61.13;100551.72;4865620;28;124566;-72
2022/09/14 08:44:28;;;;;;;7.85;3.85;;;;;;;19.05;60.96;100557.69;4865150;28;120335;-72
2022/09/14 08:47:07;;;;;;;10.63;3.92;;;;;;;19.09;61.04;100558.28;4867267;28;119242;-72
2022/09/14 08:49:53;;;;;;;9.38;3.63;;;;;;;19.12;60.98;100547.28;4879776;28;123834;-73
2022/09/14 08:52:27;;;;;;;8.82;4.05;;;;;;;19.16;60.95;100548.72;4875585;28;123554;-73
2022/09/14 08:54:57;;;;;;;7.28;3.95;;;;;;;19.17;60.87;100547.72;4869792;28;120282;-73
2022/09/14 08:57:34;;;;;;;7.85;4.40;;;;;;;19.18;60.94;100551.28;4869646;28;119290;-73
2022/09/14 09:00:09;;;;;;;9.48;4.50;;;;;;;19.16;60.95;100548.72;4879003;28;124632;-72
2022/09/14 09:03:10;;;;;;;7.03;4.30;;;;;;;19.15;60.97;100547.00;4860782;28;124433;-72
2022/09/14 09:05:48;;;;;;;9.18;3.95;;;;;;;19.16;61.01;100553.25;4855400;28;118994;-72
2022/09/14 09:08:27;;;;;;;7.85;4.18;;;;;;;19.15;61.00;100557.75;4885666;28;119449;-72
2022/09/14 09:10:58;;;;;;;9.40;3.80;;;;;;;19.16;61.05;100561.31;4878262;28;124712;-72
2022/09/14 09:13:29;;;;;;;11.07;4.50;;;;;;;19.19;61.34;100567.28;4868266;28;123911;-72
2022/09/14 09:16:00;;;;;;;7.43;3.75;;;;;;;19.24;61.27;100572.22;4879674;28;120698;-73
2022/09/14 09:18:39;;;;;;;9.65;4.15;;;;;;;19.31;61.41;100567.16;4881236;28;120835;-72
2022/09/14 09:21:15;;;;;;;7.25;3.60;;;;;;;19.35;61.07;100563.25;4877450;28;124351;-72
2022/09/14 09:23:42;;;;;;;8.98;3.38;;;;;;;19.35;60.68;100563.25;4880816;28;124320;-73
2022/09/14 09:26:24;;;;;;;5.40;3.33;;;;;;;19.31;60.64;100561.78;4881619;28;119720;-72
2022/09/14 09:28:55;;;;;;;10.98;3.42;;;;;;;19.31;60.70;100569.84;4861062;28;119305;-73
2022/09/14 09:31:47;;;;;;;11.25;3.47;;;;;;;19.28;60.51;100556.72;4873363;28;123997;-73
2022/09/14 09:34:42;;;;;;;7.05;3.47;;;;;;;19.29;60.64;100563.75;4886799;28;124308;-73
2022/09/14 09:37:24;;;;;;;8.98;4.00;;;;;;;19.26;60.53;100564.88;4875247;28;119397;-72
2022/09/14 09:39:51;;;;;;;6.13;3.80;;;;;;;19.25;60.71;100563.22;4873235;28;119270;-73
2022/09/14 09:42:23;;;;;;;9.00;3.78;;;;;;;19.25;60.63;100569.41;4873132;28;123481;-72
2022/09/14 09:44:59;;;;;;;7.03;3.75;;;;;;;19.23;60.63;100566.03;4855443;28;123523;-72
2022/09/14 09:47:33;;;;;;;8.82;3.88;;;;;;;19.24;60.91;100578.44;4858053;28;119862;-72
2022/09/14 09:50:04;;;;;;;6.90;3.72;;;;;;;19.25;60.91;100572.09;4870079;28;118777;-73
2022/09/14 09:52:33;;;;;;;9.18;3.65;;;;;;;19.30;60.91;100570.84;4871730;28;124563;-72
2022/09/14 09:55:04;;;;;;;5.35;3.95;;;;;;;19.31;60.98;100562.66;4886747;28;122823;-73
2022/09/14 09:57:35;;;;;;;8.50;4.20;;;;;;;19.34;60.95;100556.16;4872406;28;119137;-72
2022/09/14 10:00:24;;;;;;;11.27;4.40;;;;;;;19.34;60.67;100561.53;4876593;28;118830;-72
2022/09/14 10:02:53;;;;;;;10.20;4.60;;;;;;;19.35;60.95;100557.88;4873670;28;123082;-72
2022/09/14 10:05:24;;;;;;;8.00;4.25;;;;;;;19.35;60.99;100552.53;4880558;28;123293;-72
2022/09/14 10:07:58;;;;;;;7.85;4.28;;;;;;;19.37;61.08;100550.53;4894102;28;120689;-72
2022/09/14 10:10:34;;;;;;;7.88;4.22;;;;;;;19.39;61.08;100545.88;4897111;28;120188;-70
2022/09/14 10:13:03;;;;;;;9.07;4.60;;;;;;;19.40;60.80;100547.56;4889901;28;123475;-71
2022/09/14 10:15:35;;;;;;;8.00;4.35;;;;;;;19.41;60.82;100551.97;4879196;28;124047;-70
2022/09/14 10:18:07;;;;;;;11.00;4.90;;;;;;;19.40;60.91;100543.06;4866533;28;120942;-70
2022/09/14 10:20:37;;;;;;;9.18;5.15;;;;;;;19.39;60.70;100537.84;4875422;28;118866;-70
2022/09/14 10:23:37;;;;;;;9.30;4.60;;;;;;;19.38;60.86;100536.13;4876658;28;123791;-70
2022/09/14 10:26:10;;;;;;;9.35;4.60;;;;;;;19.37;60.62;100518.31;4859808;28;123979;-71
2022/09/14 10:28:46;;;;;;;11.15;5.53;;;;;;;19.38;60.71;100525.38;4879526;28;119278;-70
2022/09/14 10:31:19;;;;;;;12.02;5.35;;;;;;;19.40;60.93;100520.72;4887117;28;118915;-71
2022/09/14 10:33:50;;;;;;;9.13;5.43;;;;;;;19.43;61.00;100523.16;4867590;28;124535;-71
2022/09/14 10:36:24;;;;;;;8.50;5.25;;;;;;;19.47;61.10;100516.50;4882907;28;124191;-70
2022/09/14 10:38:59;;;;;;;11.10;5.60;;;;;;;19.51;61.30;100520.63;4879843;28;118750;-71
2022/09/14 10:41:35;;;;;;;10.48;5.80;;;;;;;19.56;61.31;100523.75;4852686;28;118979;-71
2022/09/14 10:44:20;;;;;;;9.05;5.80;;;;;;;19.63;61.26;100530.31;4867943;28;124676;-71
2022/09/14 10:47:12;;;;;;;10.88;5.88;;;;;;;19.71;61.29;100534.16;4877152;28;123245;-70
2022/09/14 10:50:02;;;;;;;8.60;5.20;;;;;;;19.75;60.81;100528.38;4862609;28;119194;-71
2022/09/14 10:52:42;;;;;;;7.85;4.38;;;;;;;19.78;60.66;100532.66;4870297;28;119767;-71
2022/09/14 10:55:41;;;;;;;8.15;3.85;;;;;;;19.78;60.68;100543.41;4883682;28;123748;-71
2022/09/14 10:58:26;;;;;;;8.98;4.00;;;;;;;19.80;60.75;100541.44;4871116;28;124826;-71
2022/09/14 11:01:12;;;;;;;6.32;3.42;;;;;;;19.82;60.32;100536.78;4868251;28;120800;-72
2022/09/14 11:04:00;;;;;;;6.35;3.30;;;;;;;19.84;60.23;100548.22;4885032;28;119718;-71
2022/09/14 11:06:48;;;;;;;4.28;2.80;;;;;;;19.84;60.16;100542.84;4868907;28;124708;-72
2022/09/14 11:09:56;;;;;;;8.50;2.78;;;;;;;19.81;59.50;100538.59;4868231;28;123873;-72
2022/09/14 11:12:38;;;;;;;3.28;1.30;;;;;;;19.81;59.17;100543.13;4839755;28;120743;-71
2022/09/14 11:15:28;;;;;;;6.22;1.60;;;;;;;19.75;59.04;100539.13;4873533;28;120240;-71
2022/09/14 11:18:07;;;;;;;4.32;1.40;;;;;;;19.74;59.30;100537.47;4883767;28;124155;-71
2022/09/14 11:20:43;;;;;;;3.42;1.90;;;;;;;19.73;59.01;100540.28;4882374;28;123420;-71
2022/09/14 11:23:15;;;;;;;6.63;1.88;;;;;;;19.72;59.13;100533.16;4876364;28;118718;-71
2022/09/14 11:26:10;;;;;;;6.38;2.30;;;;;;;19.71;59.27;100531.47;4882154;28;118431;-72
2022/09/14 11:28:45;;;;;;;6.68;2.53;;;;;;;19.68;59.25;100537.09;4878366;28;123947;-73
2022/09/14 11:31:23;;;;;;;6.78;2.67;;;;;;;19.67;59.37;100535.41;4870490;28;124495;-71
2022/09/14 11:33:55;;;;;;;6.13;2.80;;;;;;;19.64;59.24;100537.34;4873086;28;119123;-72
2022/09/14 11:36:27;;;;;;;5.82;2.10;;;;;;;19.61;59.21;100532.28;4875742;28;119241;-72
2022/09/14 11:39:25;;;;;;;4.43;1.77;;;;;;;19.52;59.05;100527.72;4877871;28;124939;-71
2022/09/14 11:41:56;;;;;;;3.75;1.73;;;;;;;19.48;59.13;100526.28;4868744;28;122783;-72